createdAt,value
2023-05-12T00:00:27.119Z,9.00
2023-05-12T00:02:54.925Z,9.00
2023-05-12T00:05:23.194Z,9.10
2023-05-12T00:07:50.991Z,9.10
2023-05-12T00:10:19.203Z,9.10
2023-05-12T00:12:48.691Z,9.20
2023-05-12T00:15:16.772Z,9.10
2023-05-12T00:17:44.846Z,9.20
2023-05-12T00:20:13.186Z,9.20
2023-05-12T00:22:42.027Z,9.20
2023-05-12T00:25:10.657Z,7.40
2023-05-12T00:27:38.979Z,9.10
2023-05-12T00:30:07.715Z,9.10
2023-05-12T00:35:04.143Z,9.00
2023-05-12T00:37:32.005Z,9.10
2023-05-12T00:39:59.591Z,8.80
2023-05-12T00:42:27.329Z,8.90
2023-05-12T00:44:55.106Z,8.70
2023-05-12T00:49:51.532Z,8.50
2023-05-12T00:52:20.898Z,8.50
2023-05-12T00:54:49.797Z,8.40
2023-05-12T00:57:18.662Z,8.40
2023-05-12T00:59:46.313Z,8.30
2023-05-12T01:02:14.561Z,8.40
2023-05-12T01:04:42.356Z,8.30
2023-05-12T01:07:16.143Z,8.30
2023-05-12T01:09:45.406Z,8.40
2023-05-12T01:12:13.093Z,8.50
2023-05-12T01:14:41.553Z,8.40
2023-05-12T01:17:13.558Z,8.40
2023-05-12T01:19:50.739Z,8.30
2023-05-12T01:22:19.706Z,8.30
2023-05-12T01:24:51.471Z,8.20
2023-05-12T01:27:22.244Z,8.20
2023-05-12T01:29:51.387Z,8.20
2023-05-12T01:32:19.730Z,8.20
2023-05-12T01:34:47.789Z,8.20
2023-05-12T01:37:16.089Z,8.20
2023-05-12T01:39:46.872Z,8.20
2023-05-12T01:42:19.442Z,8.20
2023-05-12T01:44:47.955Z,8.20
2023-05-12T01:49:51.197Z,8.30
2023-05-12T01:52:20.504Z,8.30
2023-05-12T01:54:48.393Z,8.30
2023-05-12T01:57:16.198Z,8.30
2023-05-12T01:59:44.282Z,8.30
2023-05-12T02:02:12.714Z,8.30
2023-05-12T02:04:40.237Z,8.20
2023-05-12T02:07:08.020Z,8.10
2023-05-12T02:09:35.756Z,8.00
2023-05-12T02:12:04.368Z,7.90
2023-05-12T02:17:00.075Z,7.80
2023-05-12T02:19:29.157Z,7.80
2023-05-12T02:21:59.179Z,7.70
2023-05-12T02:24:26.958Z,7.60
2023-05-12T02:26:54.582Z,7.60
2023-05-12T02:31:50.713Z,7.60
2023-05-12T02:34:18.722Z,7.50
2023-05-12T02:36:46.256Z,6.90
2023-05-12T02:39:14.061Z,7.40
2023-05-12T02:41:42.378Z,7.40
2023-05-12T02:44:09.981Z,7.50
2023-05-12T02:49:06.351Z,7.70
2023-05-12T02:51:33.950Z,7.80
2023-05-12T02:54:02.077Z,8.00
2023-05-12T02:56:31.349Z,8.10
2023-05-12T02:59:01.111Z,8.10
2023-05-12T03:01:28.777Z,8.10
2023-05-12T03:03:56.747Z,8.10
2023-05-12T03:06:24.404Z,8.10
2023-05-12T03:08:52.079Z,8.10
2023-05-12T03:11:19.673Z,8.10
2023-05-12T03:13:47.979Z,8.10
2023-05-12T03:16:19.496Z,8.00
2023-05-12T03:18:49.207Z,8.00
2023-05-12T03:21:16.875Z,8.00
2023-05-12T03:23:44.365Z,7.90
2023-05-12T03:26:12.169Z,7.90
2023-05-12T03:28:39.852Z,7.80
2023-05-12T03:31:07.543Z,7.80
2023-05-12T03:33:35.136Z,7.80
2023-05-12T03:36:03.031Z,7.80
2023-05-12T03:38:30.664Z,7.70
2023-05-12T03:41:05.730Z,7.60
2023-05-12T03:43:34.740Z,7.60
2023-05-12T03:46:02.301Z,7.60
2023-05-12T03:48:30.866Z,7.60
2023-05-12T03:50:58.521Z,7.60
2023-05-12T03:53:26.243Z,7.70
2023-05-12T03:55:54.198Z,7.60
2023-05-12T03:58:23.559Z,7.70
2023-05-12T04:00:51.402Z,7.80
2023-05-12T04:03:19.145Z,7.80
2023-05-12T04:05:47.009Z,7.80
2023-05-12T04:08:15.844Z,7.90
2023-05-12T04:10:43.473Z,7.80
2023-05-12T04:13:11.147Z,7.80
2023-05-12T04:15:38.852Z,7.80
2023-05-12T04:18:06.610Z,7.90
2023-05-12T04:20:34.252Z,7.90
2023-05-12T04:23:02.005Z,7.90
2023-05-12T04:25:29.845Z,8.00
2023-05-12T04:30:25.846Z,8.20
2023-05-12T04:32:54.109Z,8.30
2023-05-12T04:35:22.756Z,8.40
2023-05-12T04:37:51.092Z,8.50
2023-05-12T04:40:19.073Z,8.60
2023-05-12T04:42:47.501Z,8.70
2023-05-12T04:45:16.345Z,8.70
2023-05-12T04:47:45.430Z,8.70
2023-05-12T04:50:13.964Z,8.90
2023-05-12T04:52:41.999Z,9.00
2023-05-12T04:55:09.969Z,9.10
2023-05-12T04:57:37.880Z,9.10
2023-05-12T05:00:07.808Z,9.10
2023-05-12T05:02:38.730Z,9.10
2023-05-12T05:05:07.004Z,9.10
2023-05-12T05:07:35.190Z,9.10
2023-05-12T05:10:03.579Z,9.10
2023-05-12T05:12:31.842Z,9.10
2023-05-12T05:14:59.662Z,9.10
2023-05-12T05:17:28.511Z,9.10
2023-05-12T05:19:59.303Z,9.20
2023-05-12T05:22:30.899Z,9.20
2023-05-12T05:24:58.732Z,9.20
2023-05-12T05:27:27.048Z,9.30
2023-05-12T05:29:54.921Z,9.20
2023-05-12T05:32:22.878Z,9.20
2023-05-12T05:34:50.958Z,9.40
2023-05-12T05:37:19.901Z,9.40
2023-05-12T05:39:47.586Z,9.50
2023-05-12T05:42:15.893Z,9.50
2023-05-12T05:44:43.699Z,9.50
2023-05-12T05:47:12.035Z,9.50
2023-05-12T05:49:39.849Z,9.50
2023-05-12T05:52:09.402Z,9.50
2023-05-12T05:54:37.135Z,9.60
2023-05-12T05:57:05.220Z,9.80
2023-05-12T05:59:33.354Z,9.70
2023-05-12T06:02:01.432Z,9.90
2023-05-12T06:04:31.119Z,10.00
2023-05-12T06:09:28.197Z,10.10
2023-05-12T06:11:56.230Z,10.10
2023-05-12T06:14:24.035Z,10.10
2023-05-12T06:19:19.620Z,10.10
2023-05-12T06:24:15.220Z,10.10
2023-05-12T06:26:43.343Z,10.10
2023-05-12T06:29:11.132Z,10.20
2023-05-12T06:31:40.088Z,10.20
2023-05-12T06:34:08.549Z,10.30
2023-05-12T06:36:36.373Z,10.40
2023-05-12T06:39:04.416Z,10.40
2023-05-12T06:41:33.708Z,10.60
2023-05-12T06:44:02.628Z,10.70
2023-05-12T06:46:30.240Z,10.90
2023-05-12T06:49:01.056Z,11.10
2023-05-12T06:51:28.887Z,11.40
2023-05-12T06:53:56.540Z,11.50
2023-05-12T06:56:26.657Z,11.60
2023-05-12T06:58:55.871Z,11.90
2023-05-12T07:01:23.586Z,12.00
2023-05-12T07:03:52.288Z,12.00
2023-05-12T07:06:19.933Z,13.90
2023-05-12T07:08:48.336Z,12.10
2023-05-12T07:11:20.080Z,12.10
2023-05-12T07:13:48.160Z,12.10
2023-05-12T07:16:17.363Z,12.20
2023-05-12T07:18:45.975Z,12.40
2023-05-12T07:21:13.825Z,12.30
2023-05-12T07:23:41.970Z,12.40
2023-05-12T07:26:09.872Z,12.40
2023-05-12T07:28:38.342Z,12.40
2023-05-12T07:31:07.628Z,12.50
2023-05-12T07:33:36.295Z,12.60
2023-05-12T07:36:04.915Z,12.70
2023-05-12T07:38:32.779Z,12.90
2023-05-12T07:41:00.775Z,13.20
2023-05-12T07:43:28.609Z,13.20
2023-05-12T07:45:56.292Z,13.40
2023-05-12T07:48:23.991Z,13.80
2023-05-12T07:50:51.855Z,13.90
2023-05-12T07:53:19.411Z,13.90
2023-05-12T07:55:47.235Z,14.20
2023-05-12T07:58:14.805Z,14.30
2023-05-12T08:00:42.868Z,14.30
2023-05-12T08:03:10.466Z,14.30
2023-05-12T08:05:38.018Z,14.40
2023-05-12T08:08:05.691Z,14.30
2023-05-12T08:13:01.621Z,14.30
2023-05-12T08:15:29.190Z,14.30
2023-05-12T08:17:57.023Z,14.20
2023-05-12T08:20:25.728Z,14.20
2023-05-12T08:22:54.473Z,14.10
2023-05-12T08:25:22.443Z,14.10
2023-05-12T08:27:50.112Z,14.30
2023-05-12T08:30:17.784Z,14.40
2023-05-12T08:32:45.699Z,14.80
2023-05-12T08:35:13.558Z,14.80
2023-05-12T08:37:41.246Z,15.10
2023-05-12T08:40:18.033Z,15.30
2023-05-12T08:42:56.019Z,15.70
2023-05-12T08:45:23.964Z,15.70
2023-05-12T08:47:53.980Z,16.10
2023-05-12T08:50:23.011Z,16.30
2023-05-12T08:52:51.757Z,16.50
2023-05-12T08:55:20.716Z,16.70
2023-05-12T08:57:49.018Z,16.60
2023-05-12T09:00:17.304Z,16.60
2023-05-12T09:02:52.740Z,16.40
2023-05-12T09:05:22.946Z,16.30
2023-05-12T09:07:53.918Z,16.40
2023-05-12T09:10:34.458Z,16.40
2023-05-12T09:13:46.286Z,16.70
2023-05-12T09:16:18.588Z,16.70
2023-05-12T09:18:59.354Z,16.40
2023-05-12T09:21:28.667Z,16.30
2023-05-12T09:23:57.500Z,16.10
2023-05-12T09:26:26.875Z,16.00
2023-05-12T09:29:06.648Z,15.80
2023-05-12T09:31:35.001Z,15.80
2023-05-12T09:34:10.013Z,15.90
2023-05-12T09:36:37.672Z,16.10
2023-05-12T09:39:08.272Z,16.30
2023-05-12T09:41:43.506Z,16.40
2023-05-12T09:44:16.761Z,16.90
2023-05-12T09:46:45.063Z,18.70
2023-05-12T09:49:13.103Z,17.30
2023-05-12T09:51:41.057Z,17.60
2023-05-12T09:54:09.911Z,17.60
2023-05-12T09:56:38.752Z,17.70
2023-05-12T09:59:06.561Z,17.80
2023-05-12T10:01:36.103Z,17.80
2023-05-12T10:04:09.358Z,17.80
2023-05-12T10:06:43.179Z,17.50
2023-05-12T10:09:24.530Z,17.50
2023-05-12T10:11:54.088Z,16.10
2023-05-12T10:14:23.564Z,17.50
2023-05-12T10:16:52.253Z,17.80
2023-05-12T10:19:21.246Z,18.20
2023-05-12T10:21:49.709Z,18.20
2023-05-12T10:24:17.980Z,18.10
2023-05-12T10:26:45.710Z,18.10
2023-05-12T10:29:14.330Z,18.40
2023-05-12T10:31:45.353Z,18.40
2023-05-12T10:34:21.728Z,18.50
2023-05-12T10:36:52.312Z,18.50
2023-05-12T10:39:20.092Z,18.20
2023-05-12T10:41:47.703Z,18.00
2023-05-12T10:44:15.647Z,17.90
2023-05-12T10:46:44.190Z,17.90
2023-05-12T10:49:13.176Z,18.10
2023-05-12T10:51:43.834Z,18.10
2023-05-12T10:54:13.082Z,18.00
2023-05-12T10:56:44.382Z,17.70
2023-05-12T10:59:20.919Z,17.60
2023-05-12T11:02:03.282Z,17.70
2023-05-12T11:04:53.498Z,18.10
2023-05-12T11:07:24.659Z,18.30
2023-05-12T11:09:57.774Z,18.60
2023-05-12T11:12:29.173Z,18.90
2023-05-12T11:14:56.876Z,19.20
2023-05-12T11:17:24.766Z,19.10
2023-05-12T11:19:55.066Z,19.10
2023-05-12T11:22:24.149Z,19.10
2023-05-12T11:24:53.119Z,18.90
2023-05-12T11:27:23.364Z,18.80
2023-05-12T11:30:04.473Z,18.50
2023-05-12T11:32:33.546Z,18.40
2023-05-12T11:35:14.308Z,18.40
2023-05-12T11:37:43.532Z,18.60
2023-05-12T11:40:20.693Z,18.80
2023-05-12T11:42:52.826Z,19.00
2023-05-12T11:45:23.644Z,19.30
2023-05-12T11:47:52.117Z,19.50
2023-05-12T11:50:24.884Z,19.80
2023-05-12T11:52:55.165Z,20.00
2023-05-12T11:55:24.474Z,20.30
2023-05-12T11:58:05.592Z,20.40
2023-05-12T12:00:35.229Z,20.60
2023-05-12T12:03:11.759Z,20.50
2023-05-12T12:05:41.280Z,20.10
2023-05-12T12:08:14.798Z,19.50
2023-05-12T12:10:46.499Z,19.30
2023-05-12T12:13:21.856Z,19.30
2023-05-12T12:15:50.663Z,19.00
2023-05-12T12:18:19.282Z,18.90
2023-05-12T12:20:47.678Z,18.80
2023-05-12T12:23:15.489Z,18.80
2023-05-12T12:25:43.645Z,19.20
2023-05-12T12:28:11.555Z,19.80
2023-05-12T12:30:39.417Z,20.20
2023-05-12T12:33:07.090Z,20.00
2023-05-12T12:35:34.727Z,20.20
2023-05-12T12:38:02.287Z,20.00
2023-05-12T12:40:31.216Z,19.90
2023-05-12T12:42:58.731Z,19.80
2023-05-12T12:45:26.740Z,19.70
2023-05-12T12:47:54.952Z,19.70
2023-05-12T12:50:24.973Z,19.80
2023-05-12T12:52:53.593Z,19.80
2023-05-12T12:55:21.988Z,19.40
2023-05-12T12:57:49.814Z,19.20
2023-05-12T13:00:17.796Z,19.10
2023-05-12T13:02:45.712Z,19.10
2023-05-12T13:05:13.516Z,19.00
2023-05-12T13:07:41.269Z,19.00
2023-05-12T13:10:09.782Z,19.00
2023-05-12T13:12:37.355Z,18.80
2023-05-12T13:15:07.282Z,18.80
2023-05-12T13:17:35.088Z,18.60
2023-05-12T13:20:04.041Z,18.50
2023-05-12T13:22:32.148Z,18.40
2023-05-12T13:24:59.545Z,18.20
2023-05-12T13:27:27.034Z,17.80
2023-05-12T13:29:54.561Z,17.60
2023-05-12T13:32:22.522Z,17.40
2023-05-12T13:34:50.114Z,17.50
2023-05-12T13:37:17.596Z,18.30
2023-05-12T13:39:45.503Z,18.40
2023-05-12T13:42:13.247Z,19.10
2023-05-12T13:44:40.960Z,19.90
2023-05-12T13:47:08.492Z,20.40
2023-05-12T13:49:36.782Z,20.50
2023-05-12T13:52:04.852Z,20.70
2023-05-12T13:54:33.025Z,20.90
2023-05-12T13:57:04.077Z,21.00
2023-05-12T13:59:32.271Z,21.30
2023-05-12T14:02:01.360Z,21.20
2023-05-12T14:04:29.375Z,21.30
2023-05-12T14:06:57.456Z,21.20
2023-05-12T14:09:25.155Z,21.30
2023-05-12T14:11:54.164Z,21.50
2023-05-12T14:14:22.137Z,22.10
2023-05-12T14:16:50.224Z,22.60
2023-05-12T14:19:18.095Z,21.80
2023-05-12T14:21:45.844Z,21.50
2023-05-12T14:24:13.261Z,21.10
2023-05-12T14:26:41.132Z,20.50
2023-05-12T14:29:09.073Z,19.40
2023-05-12T14:31:36.888Z,18.80
2023-05-12T14:34:05.114Z,18.70
2023-05-12T14:36:34.095Z,18.30
2023-05-12T14:39:01.597Z,18.20
2023-05-12T14:41:29.661Z,18.20
2023-05-12T14:43:58.567Z,18.10
2023-05-12T14:46:26.330Z,18.10
2023-05-12T14:48:54.049Z,18.70
2023-05-12T14:51:21.717Z,19.20
2023-05-12T14:53:49.754Z,20.10
2023-05-12T14:56:17.328Z,20.20
2023-05-12T14:58:44.975Z,21.40
2023-05-12T15:01:12.543Z,21.60
2023-05-12T15:03:40.264Z,21.00
2023-05-12T15:06:08.784Z,20.40
2023-05-12T15:08:36.561Z,19.30
2023-05-12T15:11:04.820Z,19.30
2023-05-12T15:13:32.305Z,19.30
2023-05-12T15:16:00.100Z,19.20
2023-05-12T15:18:27.634Z,20.80
2023-05-12T15:20:55.372Z,18.40
2023-05-12T15:23:23.074Z,18.30
2023-05-12T15:25:50.474Z,18.30
2023-05-12T15:28:18.369Z,18.50
2023-05-12T15:30:55.164Z,18.60
2023-05-12T15:33:23.870Z,18.60
2023-05-12T15:35:51.569Z,18.40
2023-05-12T15:38:19.228Z,17.90
2023-05-12T15:40:47.259Z,17.70
2023-05-12T15:43:15.239Z,17.60
2023-05-12T15:45:42.839Z,17.70
2023-05-12T15:48:11.094Z,17.60
2023-05-12T15:50:38.991Z,17.40
2023-05-12T15:53:07.094Z,17.30
2023-05-12T15:55:34.938Z,18.40
2023-05-12T15:58:04.136Z,18.40
2023-05-12T16:00:31.988Z,18.90
2023-05-12T16:03:01.710Z,19.50
2023-05-12T16:05:29.738Z,20.20
2023-05-12T16:07:57.860Z,20.40
2023-05-12T16:10:25.562Z,20.40
2023-05-12T16:12:53.182Z,20.20
2023-05-12T16:15:21.037Z,20.20
2023-05-12T16:17:49.148Z,20.40
2023-05-12T16:20:16.784Z,20.50
2023-05-12T16:22:44.384Z,20.80
2023-05-12T16:25:11.940Z,21.20
2023-05-12T16:27:39.538Z,21.00
2023-05-12T16:30:07.853Z,23.80
2023-05-12T16:32:35.416Z,20.90
2023-05-12T16:35:03.083Z,21.10
2023-05-12T16:37:31.133Z,21.40
2023-05-12T16:39:58.948Z,21.60
2023-05-12T16:42:26.609Z,21.10
2023-05-12T16:44:57.101Z,20.90
2023-05-12T16:47:24.752Z,21.00
2023-05-12T16:49:53.803Z,20.40
2023-05-12T16:52:21.715Z,20.30
2023-05-12T16:54:49.303Z,20.10
2023-05-12T16:57:16.910Z,20.20
2023-05-12T16:59:44.757Z,20.50
2023-05-12T17:02:12.315Z,20.20
2023-05-12T17:04:39.921Z,20.20
2023-05-12T17:07:07.416Z,19.20
2023-05-12T17:09:34.961Z,19.40
2023-05-12T17:12:04.674Z,19.40
2023-05-12T17:14:33.362Z,20.40
2023-05-12T17:17:01.271Z,20.40
2023-05-12T17:19:30.149Z,21.00
2023-05-12T17:21:57.841Z,21.60
2023-05-12T17:24:25.947Z,22.50
2023-05-12T17:26:53.907Z,22.60
2023-05-12T17:29:21.807Z,22.50
2023-05-12T17:31:49.460Z,22.20
2023-05-12T17:34:16.976Z,22.10
2023-05-12T17:36:44.504Z,21.50
2023-05-12T17:39:15.732Z,20.60
2023-05-12T17:41:44.462Z,19.60
2023-05-12T17:44:12.181Z,18.80
2023-05-12T17:46:39.752Z,18.00
2023-05-12T17:49:07.390Z,17.50
2023-05-12T17:51:35.499Z,17.00
2023-05-12T17:54:04.102Z,16.50
2023-05-12T17:56:31.757Z,16.10
2023-05-12T17:58:59.270Z,15.80
2023-05-12T18:01:27.854Z,15.60
2023-05-12T18:03:55.596Z,15.30
2023-05-12T18:06:24.393Z,15.20
2023-05-12T18:08:52.575Z,15.20
2023-05-12T18:12:16.786Z,15.20
2023-05-12T18:14:44.598Z,15.60
2023-05-12T18:17:12.494Z,16.20
2023-05-12T18:19:40.430Z,16.50
2023-05-12T18:22:08.115Z,16.50
2023-05-12T18:24:35.638Z,16.90
2023-05-12T18:27:05.869Z,17.20
2023-05-12T18:29:34.394Z,17.40
2023-05-12T18:32:02.175Z,17.60
2023-05-12T18:34:30.484Z,18.00
2023-05-12T18:36:58.108Z,18.10
2023-05-12T18:39:26.161Z,17.90
2023-05-12T18:41:54.437Z,17.90
2023-05-12T18:44:22.193Z,17.80
2023-05-12T18:46:49.885Z,17.50
2023-05-12T18:49:17.585Z,17.00
2023-05-12T18:51:45.115Z,16.60
2023-05-12T18:54:12.977Z,16.30
2023-05-12T18:56:40.590Z,16.00
2023-05-12T18:59:08.579Z,15.70
2023-05-12T19:01:36.523Z,15.50
2023-05-12T19:04:04.268Z,15.20
2023-05-12T19:06:32.236Z,15.00
2023-05-12T19:09:00.109Z,14.80
2023-05-12T19:11:27.621Z,14.50
2023-05-12T19:13:55.279Z,14.20
2023-05-12T19:16:23.960Z,14.00
2023-05-12T19:18:51.607Z,13.90
2023-05-12T19:21:19.261Z,13.70
2023-05-12T19:23:47.207Z,13.60
2023-05-12T19:26:14.791Z,13.50
2023-05-12T19:28:42.373Z,13.20
2023-05-12T19:31:10.858Z,13.20
2023-05-12T19:33:39.438Z,13.10
2023-05-12T19:36:07.383Z,12.90
2023-05-12T19:38:34.932Z,12.90
2023-05-12T19:41:02.601Z,12.80
2023-05-12T19:43:30.143Z,12.80
2023-05-12T19:45:57.902Z,12.80
2023-05-12T19:48:25.835Z,12.80
2023-05-12T19:50:54.296Z,12.50
2023-05-12T19:53:22.002Z,12.40
2023-05-12T19:55:49.781Z,12.20
2023-05-12T19:58:17.410Z,12.10
2023-05-12T20:00:45.087Z,12.00
2023-05-12T20:05:41.287Z,12.00
2023-05-12T20:08:09.106Z,11.90
2023-05-12T20:10:36.714Z,11.80
2023-05-12T20:13:04.788Z,11.70
2023-05-12T20:15:32.772Z,11.70
2023-05-12T20:18:00.594Z,11.70
2023-05-12T20:20:28.365Z,11.60
2023-05-12T20:22:56.294Z,11.60
2023-05-12T20:25:26.985Z,11.60
2023-05-12T20:27:55.641Z,11.50
2023-05-12T20:30:23.699Z,11.60
2023-05-12T20:32:51.522Z,11.50
2023-05-12T20:35:19.349Z,11.50
2023-05-12T20:37:46.973Z,11.50
2023-05-12T20:40:14.559Z,11.40
2023-05-12T20:42:43.942Z,11.40
2023-05-12T20:45:11.862Z,11.40
2023-05-12T20:47:39.281Z,11.40
2023-05-12T20:50:07.380Z,11.30
2023-05-12T20:52:38.588Z,11.20
2023-05-12T20:55:07.180Z,11.10
2023-05-12T20:57:34.581Z,11.00
2023-05-12T21:00:02.180Z,11.00
2023-05-12T21:02:29.824Z,10.90
2023-05-12T21:04:57.583Z,10.80
2023-05-12T21:07:25.196Z,10.80
2023-05-12T21:09:52.623Z,10.70
2023-05-12T21:12:19.975Z,10.60
2023-05-12T21:14:47.318Z,10.60
2023-05-12T21:17:16.301Z,10.60
2023-05-12T21:19:44.150Z,10.50
2023-05-12T21:22:12.947Z,10.50
2023-05-12T21:24:40.488Z,10.60
2023-05-12T21:27:08.358Z,10.60
2023-05-12T21:29:36.538Z,10.70
2023-05-12T21:32:04.183Z,10.70
2023-05-12T21:34:33.782Z,10.80
2023-05-12T21:37:01.628Z,10.80
2023-05-12T21:39:30.214Z,10.80
2023-05-12T21:41:57.788Z,10.80
2023-05-12T21:44:26.597Z,10.80
2023-05-12T21:46:54.005Z,10.80
2023-05-12T21:49:21.994Z,10.70
2023-05-12T21:51:49.656Z,10.60
2023-05-12T21:54:17.542Z,10.60
2023-05-12T21:56:44.967Z,10.40
2023-05-12T21:59:12.823Z,10.40
2023-05-12T22:01:40.319Z,10.30
2023-05-12T22:04:10.332Z,10.30
2023-05-12T22:06:39.237Z,10.20
2023-05-12T22:09:07.031Z,10.20
2023-05-12T22:11:37.876Z,10.20
2023-05-12T22:14:05.620Z,10.20
2023-05-12T22:16:41.153Z,10.20
2023-05-12T22:19:09.629Z,10.30
2023-05-12T22:21:37.107Z,10.20
2023-05-12T22:24:04.610Z,10.20
2023-05-12T22:26:32.006Z,10.20
2023-05-12T22:28:59.410Z,10.20
2023-05-12T22:31:26.920Z,10.10
2023-05-12T22:33:54.816Z,10.00
2023-05-12T22:36:22.446Z,10.00
2023-05-12T22:38:49.864Z,9.90
2023-05-12T22:41:17.220Z,9.90
2023-05-12T22:43:44.791Z,9.90
2023-05-12T22:46:12.171Z,9.80
2023-05-12T22:48:39.859Z,9.80
2023-05-12T22:51:07.379Z,9.70
2023-05-12T22:53:35.943Z,9.70
2023-05-12T22:56:03.615Z,9.70
2023-05-12T22:58:31.478Z,9.70
2023-05-12T23:01:00.723Z,9.70
2023-05-12T23:03:28.236Z,9.70
2023-05-12T23:05:55.739Z,9.70
2023-05-12T23:08:23.134Z,9.60
2023-05-12T23:10:50.585Z,9.70
2023-05-12T23:13:18.025Z,9.70
2023-05-12T23:15:45.826Z,9.60
2023-05-12T23:18:13.528Z,9.60
2023-05-12T23:20:41.057Z,9.60
2023-05-12T23:23:08.539Z,9.50
2023-05-12T23:25:36.941Z,9.50
2023-05-12T23:28:04.489Z,9.40
2023-05-12T23:30:32.187Z,9.40
2023-05-12T23:32:59.696Z,9.50
2023-05-12T23:35:27.238Z,9.50
2023-05-12T23:37:54.961Z,9.50
2023-05-12T23:40:22.764Z,9.60
2023-05-12T23:42:50.433Z,9.60
2023-05-12T23:45:17.824Z,9.50
2023-05-12T23:47:45.292Z,9.50
2023-05-12T23:50:12.943Z,9.40
2023-05-12T23:52:40.329Z,9.30
2023-05-12T23:55:08.025Z,9.30
2023-05-12T23:57:35.574Z,9.30
